createdAt,value
2022-12-08T00:01:45.454Z,74.82
2022-12-08T00:04:16.915Z,75.03
2022-12-08T00:07:06.887Z,74.92
2022-12-08T00:09:43.045Z,74.76
2022-12-08T00:12:16.365Z,74.80
2022-12-08T00:14:49.510Z,74.70
2022-12-08T00:17:20.575Z,74.58
2022-12-08T00:19:51.871Z,74.44
2022-12-08T00:22:23.143Z,74.32
2022-12-08T00:24:54.613Z,74.49
2022-12-08T00:27:26.065Z,74.47
2022-12-08T00:29:57.790Z,74.61
2022-12-08T00:32:29.153Z,74.85
2022-12-08T00:35:00.661Z,75.07
2022-12-08T00:37:31.484Z,75.19
2022-12-08T00:40:03.020Z,75.33
2022-12-08T00:42:34.591Z,75.51
2022-12-08T00:45:06.354Z,75.67
2022-12-08T00:47:37.629Z,76.03
2022-12-08T00:50:09.307Z,75.72
2022-12-08T00:52:40.571Z,75.83
2022-12-08T00:55:12.057Z,75.81
2022-12-08T00:57:43.676Z,75.79
2022-12-08T01:00:15.856Z,75.83
2022-12-08T01:02:46.879Z,75.76
2022-12-08T01:05:18.891Z,75.65
2022-12-08T01:07:49.303Z,75.44
2022-12-08T01:10:20.838Z,75.56
2022-12-08T01:12:51.906Z,75.63
2022-12-08T01:15:24.012Z,75.62
2022-12-08T01:17:55.423Z,75.74
2022-12-08T01:20:26.968Z,75.55
2022-12-08T01:22:58.125Z,75.65
2022-12-08T01:25:29.328Z,75.54
2022-12-08T01:28:00.603Z,75.48
2022-12-08T01:30:32.568Z,75.27
2022-12-08T01:33:04.463Z,75.44
2022-12-08T01:35:36.994Z,75.32
2022-12-08T01:38:08.578Z,75.07
2022-12-08T01:40:40.620Z,75.01
2022-12-08T01:43:21.720Z,74.82
2022-12-08T01:45:53.522Z,74.85
2022-12-08T01:48:28.287Z,74.91
2022-12-08T01:51:01.069Z,74.69
2022-12-08T01:53:34.391Z,74.67
2022-12-08T01:56:14.244Z,74.58
2022-12-08T01:58:52.687Z,74.65
2022-12-08T02:01:24.980Z,74.75
2022-12-08T02:04:19.150Z,74.77
2022-12-08T02:06:52.320Z,74.71
2022-12-08T02:09:24.369Z,74.71
2022-12-08T02:11:59.907Z,74.67
2022-12-08T02:14:32.187Z,74.65
2022-12-08T02:17:15.525Z,74.47
2022-12-08T02:20:07.938Z,74.30
2022-12-08T02:23:02.358Z,74.56
2022-12-08T02:26:09.176Z,74.68
2022-12-08T02:29:03.348Z,74.73
2022-12-08T02:31:40.342Z,74.80
2022-12-08T02:34:28.034Z,74.74
2022-12-08T02:37:05.462Z,74.64
2022-12-08T02:39:50.371Z,74.72
2022-12-08T02:42:35.195Z,74.67
2022-12-08T02:45:18.751Z,74.71
2022-12-08T02:47:50.939Z,74.47
2022-12-08T02:50:22.868Z,73.94
2022-12-08T02:52:55.375Z,73.91
2022-12-08T02:55:53.201Z,74.33
2022-12-08T02:58:27.798Z,74.28
2022-12-08T03:01:22.643Z,74.26
2022-12-08T03:04:12.130Z,74.31
2022-12-08T03:07:11.798Z,74.35
2022-12-08T03:10:16.262Z,74.43
2022-12-08T03:12:51.649Z,74.52
2022-12-08T03:15:24.332Z,74.85
2022-12-08T03:17:58.858Z,74.91
2022-12-08T03:20:35.108Z,74.91
2022-12-08T03:23:12.329Z,75.05
2022-12-08T03:25:51.853Z,74.98
2022-12-08T03:28:23.871Z,74.91
2022-12-08T03:31:01.029Z,74.79
2022-12-08T03:33:37.789Z,74.50
2022-12-08T03:36:12.079Z,74.21
2022-12-08T03:38:46.906Z,74.19
2022-12-08T03:41:21.135Z,73.97
2022-12-08T03:43:59.377Z,73.97
2022-12-08T03:46:32.491Z,73.66
2022-12-08T03:49:04.445Z,73.98
2022-12-08T03:51:35.353Z,74.05
2022-12-08T03:54:07.219Z,74.20
2022-12-08T03:56:40.570Z,74.49
2022-12-08T03:59:13.366Z,74.41
2022-12-08T04:01:44.920Z,74.54
2022-12-08T04:04:16.711Z,74.57
2022-12-08T04:06:47.247Z,74.49
2022-12-08T04:09:19.430Z,74.42
2022-12-08T04:11:50.805Z,74.21
2022-12-08T04:14:21.928Z,74.47
2022-12-08T04:16:53.382Z,74.66
2022-12-08T04:19:24.742Z,74.69
2022-12-08T04:21:55.955Z,74.51
2022-12-08T04:24:27.323Z,74.32
2022-12-08T04:26:58.635Z,74.66
2022-12-08T04:29:29.651Z,74.93
2022-12-08T04:32:01.342Z,74.80
2022-12-08T04:34:32.621Z,74.72
2022-12-08T04:37:04.167Z,74.55
2022-12-08T04:39:35.845Z,74.41
2022-12-08T04:42:07.579Z,74.35
2022-12-08T04:44:38.854Z,74.23
2022-12-08T04:47:10.572Z,73.78
2022-12-08T04:49:42.016Z,73.73
2022-12-08T04:52:13.838Z,73.94
2022-12-08T04:54:45.197Z,74.02
2022-12-08T04:57:17.243Z,74.53
2022-12-08T04:59:48.710Z,74.70
2022-12-08T05:02:20.088Z,74.74
2022-12-08T05:04:52.854Z,75.01
2022-12-08T05:07:24.009Z,75.21
2022-12-08T05:09:55.225Z,75.25
2022-12-08T05:12:26.579Z,75.32
2022-12-08T05:14:58.005Z,75.24
2022-12-08T05:17:29.355Z,75.14
2022-12-08T05:20:01.062Z,74.99
2022-12-08T05:22:32.492Z,74.95
2022-12-08T05:25:04.038Z,74.83
2022-12-08T05:27:35.649Z,74.85
2022-12-08T05:30:08.048Z,75.05
2022-12-08T05:32:39.810Z,75.45
2022-12-08T05:35:12.072Z,75.53
2022-12-08T05:37:44.149Z,75.36
2022-12-08T05:40:14.659Z,75.28
2022-12-08T05:42:45.881Z,74.99
2022-12-08T05:45:17.863Z,74.95
2022-12-08T05:47:49.443Z,75.02
2022-12-08T05:50:21.233Z,75.40
2022-12-08T05:52:53.453Z,75.71
2022-12-08T05:55:25.008Z,75.90
2022-12-08T05:57:57.192Z,75.58
2022-12-08T06:00:29.193Z,76.07
2022-12-08T06:03:02.771Z,76.25
2022-12-08T06:05:35.816Z,76.45
2022-12-08T06:08:07.971Z,76.52
2022-12-08T06:10:42.650Z,76.48
2022-12-08T06:13:14.908Z,76.33
2022-12-08T06:15:47.103Z,76.27
2022-12-08T06:18:18.781Z,76.19
2022-12-08T06:20:50.453Z,76.19
2022-12-08T06:23:22.302Z,76.09
2022-12-08T06:25:54.850Z,75.87
2022-12-08T06:28:26.764Z,76.12
2022-12-08T06:30:58.805Z,75.95
2022-12-08T06:33:30.649Z,76.30
2022-12-08T06:36:03.065Z,76.04
2022-12-08T06:38:38.137Z,76.00
2022-12-08T06:41:14.621Z,75.87
2022-12-08T06:43:46.782Z,75.87
2022-12-08T06:46:20.934Z,76.01
2022-12-08T06:48:52.903Z,75.85
2022-12-08T06:51:25.399Z,76.07
2022-12-08T06:53:57.122Z,76.18
2022-12-08T06:56:30.008Z,75.85
2022-12-08T06:59:05.896Z,75.96
2022-12-08T07:01:38.449Z,76.21
2022-12-08T07:04:10.947Z,76.53
2022-12-08T07:06:41.849Z,76.93
2022-12-08T07:09:13.813Z,76.89
2022-12-08T07:11:45.768Z,76.91
2022-12-08T07:14:17.372Z,76.94
2022-12-08T07:16:49.017Z,76.16
2022-12-08T07:19:20.974Z,76.28
2022-12-08T07:21:55.219Z,76.85
2022-12-08T07:24:27.223Z,76.82
2022-12-08T07:26:59.002Z,76.24
2022-12-08T07:29:30.661Z,76.35
2022-12-08T07:32:02.657Z,76.60
2022-12-08T07:34:33.299Z,76.17
2022-12-08T07:37:05.575Z,76.37
2022-12-08T07:39:37.281Z,76.32
2022-12-08T07:42:09.058Z,76.31
2022-12-08T07:44:41.371Z,76.49
2022-12-08T07:47:12.730Z,76.72
2022-12-08T07:49:44.592Z,76.59
2022-12-08T07:52:16.223Z,76.13
2022-12-08T07:54:48.592Z,75.59
2022-12-08T07:57:20.717Z,75.70
2022-12-08T07:59:51.482Z,74.94
2022-12-08T08:02:26.033Z,75.19
2022-12-08T08:04:58.583Z,75.16
2022-12-08T08:07:32.305Z,74.53
2022-12-08T08:10:04.946Z,74.39
2022-12-08T08:12:36.857Z,74.37
2022-12-08T08:15:10.546Z,74.32
2022-12-08T08:17:42.545Z,74.17
2022-12-08T08:20:14.635Z,74.23
2022-12-08T08:22:48.335Z,74.25
2022-12-08T08:25:22.573Z,74.34
2022-12-08T08:27:55.457Z,74.29
2022-12-08T08:30:27.246Z,74.34
2022-12-08T08:32:59.186Z,74.05
2022-12-08T08:35:31.928Z,74.18
2022-12-08T08:38:04.014Z,74.38
2022-12-08T08:40:36.356Z,74.22
2022-12-08T08:43:08.982Z,73.89
2022-12-08T08:45:41.133Z,73.69
2022-12-08T08:48:12.974Z,73.73
2022-12-08T08:50:44.745Z,73.48
2022-12-08T08:53:16.887Z,73.30
2022-12-08T08:55:48.760Z,73.54
2022-12-08T08:58:21.260Z,73.11
2022-12-08T09:00:53.625Z,72.85
2022-12-08T09:03:25.353Z,72.74
2022-12-08T09:05:59.667Z,72.64
2022-12-08T09:08:31.923Z,72.62
2022-12-08T09:11:03.955Z,72.24
2022-12-08T09:13:35.881Z,72.34
2022-12-08T09:16:09.618Z,72.37
2022-12-08T09:18:41.678Z,72.57
2022-12-08T09:21:20.327Z,72.53
2022-12-08T09:23:59.424Z,72.58
2022-12-08T09:26:31.143Z,72.25
2022-12-08T09:29:03.399Z,72.16
2022-12-08T09:31:47.272Z,72.29
2022-12-08T09:34:20.767Z,72.21
2022-12-08T09:36:52.332Z,72.13
2022-12-08T09:39:24.085Z,72.14
2022-12-08T09:42:06.942Z,72.40
2022-12-08T09:45:04.405Z,72.38
2022-12-08T09:47:45.154Z,72.42
2022-12-08T09:50:42.795Z,72.18
2022-12-08T09:53:22.926Z,72.12
2022-12-08T09:56:10.386Z,71.86
2022-12-08T09:58:53.826Z,70.28
2022-12-08T10:01:30.693Z,69.87
2022-12-08T10:04:04.233Z,70.11
2022-12-08T10:07:10.155Z,70.31
2022-12-08T10:09:44.807Z,70.32
2022-12-08T10:12:34.386Z,70.26
2022-12-08T10:15:29.606Z,70.06
2022-12-08T10:18:04.902Z,70.07
2022-12-08T10:20:45.196Z,70.29
2022-12-08T10:23:34.757Z,70.67
2022-12-08T10:26:23.571Z,70.00
2022-12-08T10:29:02.921Z,69.75
2022-12-08T10:31:34.870Z,69.94
2022-12-08T10:34:26.030Z,70.14
2022-12-08T10:37:01.257Z,69.40
2022-12-08T10:39:37.743Z,70.00
2022-12-08T10:42:22.643Z,69.93
2022-12-08T10:45:05.632Z,69.80
2022-12-08T10:47:45.381Z,69.57
2022-12-08T10:50:30.787Z,69.81
2022-12-08T10:53:14.529Z,69.51
2022-12-08T10:55:48.215Z,69.38
2022-12-08T10:58:36.756Z,69.46
2022-12-08T11:01:30.843Z,69.05
2022-12-08T11:04:05.192Z,69.19
2022-12-08T11:06:41.258Z,69.23
2022-12-08T11:09:18.385Z,69.41
2022-12-08T11:12:19.626Z,69.80
2022-12-08T11:15:03.608Z,69.99
2022-12-08T11:17:43.950Z,70.19
2022-12-08T11:20:22.582Z,70.03
2022-12-08T11:22:58.118Z,69.66
2022-12-08T11:25:30.172Z,69.49
2022-12-08T11:28:04.897Z,69.07
2022-12-08T11:30:45.684Z,68.87
2022-12-08T11:33:23.056Z,68.66
2022-12-08T11:36:05.813Z,68.48
2022-12-08T11:38:45.563Z,68.44
2022-12-08T11:41:23.640Z,68.71
2022-12-08T11:44:27.849Z,68.50
2022-12-08T11:47:24.130Z,68.37
2022-12-08T11:50:19.495Z,68.95
2022-12-08T11:52:52.988Z,69.14
2022-12-08T11:55:49.671Z,68.88
2022-12-08T11:58:38.463Z,68.44
2022-12-08T12:01:19.877Z,68.62
2022-12-08T12:04:18.395Z,68.57
2022-12-08T12:07:14.164Z,68.79
2022-12-08T12:10:19.512Z,68.26
2022-12-08T12:13:11.300Z,67.96
2022-12-08T12:16:02.794Z,68.41
2022-12-08T12:19:13.742Z,68.30
2022-12-08T12:21:54.714Z,68.53
2022-12-08T12:24:36.224Z,68.57
2022-12-08T12:27:28.228Z,68.55
2022-12-08T12:30:21.721Z,69.03
2022-12-08T12:33:11.840Z,69.04
2022-12-08T12:35:51.075Z,69.14
2022-12-08T12:39:05.926Z,69.25
2022-12-08T12:41:45.466Z,69.28
2022-12-08T12:44:16.691Z,69.26
2022-12-08T12:46:50.872Z,69.03
2022-12-08T12:49:46.030Z,69.12
2022-12-08T12:52:22.455Z,69.22
2022-12-08T12:54:53.967Z,69.09
2022-12-08T12:57:40.486Z,69.42
2022-12-08T13:00:26.437Z,69.57
2022-12-08T13:02:59.847Z,69.56
2022-12-08T13:05:49.478Z,69.89
2022-12-08T13:08:32.024Z,70.16
2022-12-08T13:11:10.891Z,70.21
2022-12-08T13:14:03.423Z,70.29
2022-12-08T13:16:38.902Z,70.39
2022-12-08T13:19:17.702Z,70.45
2022-12-08T13:21:49.772Z,70.62
2022-12-08T13:24:25.769Z,70.43
2022-12-08T13:27:06.416Z,70.37
2022-12-08T13:29:39.183Z,70.23
2022-12-08T13:32:10.945Z,70.08
2022-12-08T13:34:57.545Z,70.21
2022-12-08T13:37:53.997Z,70.23
2022-12-08T13:40:34.299Z,70.34
2022-12-08T13:43:52.469Z,70.20
2022-12-08T13:47:09.812Z,70.29
2022-12-08T13:51:24.028Z,70.65
2022-12-08T13:58:41.764Z,70.95
2022-12-08T14:01:24.960Z,70.93
2022-12-08T14:07:03.806Z,70.81
2022-12-08T14:09:46.714Z,70.71
2022-12-08T14:12:28.814Z,70.74
2022-12-08T14:15:10.529Z,70.64
2022-12-08T14:17:43.504Z,70.75
2022-12-08T14:20:14.944Z,70.64
2022-12-08T14:22:49.683Z,70.87
2022-12-08T14:25:22.789Z,70.96
2022-12-08T14:28:03.338Z,71.20
2022-12-08T14:30:36.973Z,71.47
2022-12-08T14:33:14.182Z,71.69
2022-12-08T14:35:55.159Z,71.85
2022-12-08T14:38:28.367Z,71.70
2022-12-08T14:41:12.992Z,71.68
2022-12-08T14:43:44.874Z,71.79
2022-12-08T14:46:25.170Z,71.69
2022-12-08T14:48:58.073Z,71.62
2022-12-08T14:51:33.049Z,71.55
2022-12-08T14:54:19.712Z,71.61
2022-12-08T14:56:57.723Z,71.70
2022-12-08T14:59:36.384Z,71.86
2022-12-08T15:02:22.810Z,72.10
2022-12-08T15:05:11.252Z,72.68
2022-12-08T15:07:51.764Z,73.05
2022-12-08T15:10:27.460Z,73.05
2022-12-08T15:13:00.247Z,73.31
2022-12-08T15:15:36.580Z,73.25
2022-12-08T15:18:36.882Z,73.29
2022-12-08T15:21:15.951Z,73.41
2022-12-08T15:23:53.317Z,73.31
2022-12-08T15:26:28.135Z,73.12
2022-12-08T15:29:11.398Z,72.90
2022-12-08T15:31:45.836Z,72.86
2022-12-08T15:34:17.493Z,72.82
2022-12-08T15:36:50.827Z,72.62
2022-12-08T15:39:36.112Z,72.74
2022-12-08T15:42:16.677Z,72.83
2022-12-08T15:44:47.839Z,72.81
2022-12-08T15:47:21.816Z,73.12
2022-12-08T15:49:54.980Z,73.17
2022-12-08T15:52:27.613Z,73.16
2022-12-08T15:55:01.763Z,73.14
2022-12-08T15:58:17.539Z,73.02
2022-12-08T16:07:26.855Z,73.02
2022-12-08T16:09:31.401Z,72.96
2022-12-08T16:12:21.792Z,72.96
2022-12-08T16:17:47.035Z,73.18
2022-12-08T16:20:24.281Z,73.23
2022-12-08T16:23:13.451Z,73.18
2022-12-08T16:28:54.320Z,73.23
2022-12-08T16:31:29.892Z,73.18
2022-12-08T16:34:03.286Z,73.08
2022-12-08T16:36:37.941Z,73.08
2022-12-08T16:39:11.439Z,72.73
2022-12-08T16:42:01.423Z,73.51
2022-12-08T16:44:32.674Z,73.96
2022-12-08T16:47:12.803Z,73.56
2022-12-08T16:49:44.484Z,73.82
2022-12-08T16:52:18.913Z,73.96
2022-12-08T16:54:50.640Z,74.24
2022-12-08T16:57:22.191Z,74.14
2022-12-08T16:59:53.854Z,74.20
2022-12-08T17:02:25.107Z,74.40
2022-12-08T17:04:56.882Z,74.45
2022-12-08T17:07:27.472Z,74.36
2022-12-08T17:09:58.988Z,74.36
2022-12-08T17:12:30.382Z,74.22
2022-12-08T17:15:05.823Z,74.11
2022-12-08T17:17:38.050Z,73.85
2022-12-08T17:20:13.529Z,73.88
2022-12-08T17:22:45.045Z,73.84
2022-12-08T17:25:16.878Z,73.75
2022-12-08T17:27:47.482Z,73.67
2022-12-08T17:30:21.895Z,73.61
2022-12-08T17:32:54.136Z,73.68
2022-12-08T17:35:27.392Z,73.98
2022-12-08T17:38:00.095Z,73.83
2022-12-08T17:40:32.650Z,73.71
2022-12-08T17:43:04.345Z,73.50
2022-12-08T17:45:35.842Z,73.65
2022-12-08T17:48:07.336Z,73.77
2022-12-08T17:50:48.737Z,73.55
2022-12-08T17:53:20.108Z,73.57
2022-12-08T17:56:01.851Z,73.33
2022-12-08T17:58:33.899Z,74.16
2022-12-08T18:01:10.329Z,74.75
2022-12-08T18:03:42.163Z,74.78
2022-12-08T18:06:14.924Z,74.59
2022-12-08T18:08:46.101Z,75.30
2022-12-08T18:11:19.808Z,75.19
2022-12-08T18:13:52.128Z,75.12
2022-12-08T18:16:26.077Z,75.03
2022-12-08T18:18:57.737Z,74.91
2022-12-08T18:21:29.357Z,74.80
2022-12-08T18:24:01.235Z,74.72
2022-12-08T18:26:35.574Z,74.77
2022-12-08T18:29:09.262Z,74.49
2022-12-08T18:31:40.032Z,74.39
2022-12-08T18:34:11.599Z,74.11
2022-12-08T18:36:43.051Z,74.15
2022-12-08T18:39:26.342Z,74.12
2022-12-08T18:42:22.429Z,74.14
2022-12-08T18:45:06.921Z,74.18
2022-12-08T18:47:41.717Z,74.27
2022-12-08T18:50:13.972Z,74.34
2022-12-08T18:52:44.804Z,74.26
2022-12-08T18:55:16.983Z,74.23
2022-12-08T18:57:51.981Z,74.06
2022-12-08T19:00:23.704Z,73.99
2022-12-08T19:02:58.060Z,73.74
2022-12-08T19:05:29.535Z,73.78
2022-12-08T19:08:00.934Z,73.55
2022-12-08T19:10:32.413Z,73.69
2022-12-08T19:13:04.147Z,73.96
2022-12-08T19:15:38.907Z,73.72
2022-12-08T19:18:10.188Z,73.84
2022-12-08T19:20:41.572Z,73.88
2022-12-08T19:23:15.249Z,73.87
2022-12-08T19:25:46.853Z,73.85
2022-12-08T19:28:19.527Z,73.95
2022-12-08T19:30:51.042Z,73.92
2022-12-08T19:33:22.772Z,73.87
2022-12-08T19:35:56.721Z,74.03
2022-12-08T19:38:30.708Z,74.08
2022-12-08T19:41:24.265Z,74.15
2022-12-08T19:44:14.268Z,74.05
2022-12-08T19:46:45.707Z,74.02
2022-12-08T19:49:20.216Z,73.89
2022-12-08T19:51:51.569Z,74.02
2022-12-08T19:54:25.723Z,74.06
2022-12-08T19:56:56.843Z,74.11
2022-12-08T19:59:30.110Z,74.18
2022-12-08T20:02:05.208Z,74.10
2022-12-08T20:04:37.469Z,74.07
2022-12-08T20:07:14.676Z,74.01
2022-12-08T20:09:46.093Z,73.73
2022-12-08T20:12:17.680Z,73.70
2022-12-08T20:14:51.811Z,73.38
2022-12-08T20:17:23.078Z,73.11
2022-12-08T20:19:54.617Z,72.82
2022-12-08T20:22:26.153Z,73.08
2022-12-08T20:25:08.103Z,73.20
2022-12-08T20:27:41.177Z,73.08
2022-12-08T20:30:17.034Z,73.19
2022-12-08T20:32:49.494Z,73.62
2022-12-08T20:35:20.919Z,73.61
2022-12-08T20:37:54.059Z,73.61
2022-12-08T20:40:25.503Z,73.42
2022-12-08T20:42:57.339Z,73.29
2022-12-08T20:45:29.533Z,73.26
2022-12-08T20:48:01.886Z,73.27
2022-12-08T20:50:33.861Z,73.42
2022-12-08T20:53:04.726Z,73.58
2022-12-08T20:55:36.820Z,73.88
2022-12-08T20:58:07.055Z,73.70
2022-12-08T21:00:40.874Z,73.91
2022-12-08T21:03:15.297Z,73.87
2022-12-08T21:05:56.826Z,73.93
2022-12-08T21:08:28.527Z,73.92
2022-12-08T21:11:00.486Z,73.90
2022-12-08T21:13:31.425Z,74.02
2022-12-08T21:16:03.849Z,74.21
2022-12-08T21:18:39.455Z,74.38
2022-12-08T21:21:17.546Z,74.49
2022-12-08T21:23:49.803Z,74.57
2022-12-08T21:26:21.384Z,74.69
2022-12-08T21:28:54.571Z,74.81
2022-12-08T21:31:32.181Z,75.20
2022-12-08T21:34:05.294Z,75.25
2022-12-08T21:36:36.691Z,75.08
2022-12-08T21:39:13.068Z,75.07
2022-12-08T21:42:03.881Z,75.62
2022-12-08T21:44:36.611Z,75.90
2022-12-08T21:47:08.885Z,75.84
2022-12-08T21:49:40.823Z,75.73
2022-12-08T21:52:12.662Z,76.04
2022-12-08T21:54:44.410Z,76.28
2022-12-08T21:57:16.463Z,76.31
2022-12-08T21:59:48.466Z,76.65
2022-12-08T22:02:22.709Z,76.74
2022-12-08T22:04:55.237Z,77.13
2022-12-08T22:07:27.612Z,77.01
2022-12-08T22:09:58.478Z,77.09
2022-12-08T22:12:30.250Z,77.26
2022-12-08T22:15:02.818Z,77.04
2022-12-08T22:17:37.070Z,77.21
2022-12-08T22:20:11.537Z,77.22
2022-12-08T22:22:43.888Z,77.44
2022-12-08T22:25:15.415Z,77.33
2022-12-08T22:27:47.479Z,77.52
2022-12-08T22:30:19.568Z,77.55
2022-12-08T22:32:51.259Z,77.65
2022-12-08T22:35:22.904Z,77.88
2022-12-08T22:37:54.780Z,78.24
2022-12-08T22:40:26.609Z,78.31
2022-12-08T22:42:58.375Z,78.13
2022-12-08T22:45:30.047Z,78.12
2022-12-08T22:48:02.178Z,78.48
2022-12-08T22:50:33.853Z,78.42
2022-12-08T22:53:06.326Z,78.30
2022-12-08T22:55:46.460Z,77.73
2022-12-08T22:58:18.375Z,77.84
2022-12-08T23:00:50.095Z,78.04
2022-12-08T23:03:22.052Z,78.03
2022-12-08T23:05:54.008Z,77.88
2022-12-08T23:08:26.229Z,77.80
2022-12-08T23:10:58.737Z,77.47
2022-12-08T23:13:30.720Z,77.47
2022-12-08T23:16:02.314Z,77.33
2022-12-08T23:18:34.104Z,77.46
2022-12-08T23:21:07.851Z,77.50
2022-12-08T23:23:39.784Z,77.48
2022-12-08T23:26:21.068Z,77.30
2022-12-08T23:28:52.428Z,77.28
2022-12-08T23:31:25.556Z,77.45
2022-12-08T23:33:58.245Z,77.41
2022-12-08T23:36:31.523Z,77.37
2022-12-08T23:39:03.427Z,77.48
2022-12-08T23:41:34.893Z,77.26
2022-12-08T23:44:06.565Z,77.18
2022-12-08T23:46:38.487Z,76.99
2022-12-08T23:49:09.203Z,76.71
2022-12-08T23:51:41.053Z,76.91
2022-12-08T23:54:12.861Z,77.00
2022-12-08T23:56:46.771Z,76.83
2022-12-08T23:59:18.717Z,76.94
